createdAt,value
2023-01-19T00:00:54.568Z,996.88
2023-01-19T00:01:54.537Z,996.87
2023-01-19T00:02:54.568Z,996.87
2023-01-19T00:03:54.515Z,996.86
2023-01-19T00:04:54.520Z,996.90
2023-01-19T00:05:54.560Z,996.87
2023-01-19T00:06:54.509Z,996.85
2023-01-19T00:07:54.478Z,996.89
2023-01-19T00:08:54.482Z,996.87
2023-01-19T00:09:54.447Z,996.89
2023-01-19T00:10:54.444Z,996.98
2023-01-19T00:11:54.443Z,997.00
2023-01-19T00:12:54.422Z,996.97
2023-01-19T00:13:54.451Z,997.03
2023-01-19T00:14:54.407Z,997.05
2023-01-19T00:15:54.436Z,997.04
2023-01-19T00:16:54.385Z,997.06
2023-01-19T00:17:54.375Z,997.05
2023-01-19T00:18:54.374Z,997.04
2023-01-19T00:19:54.353Z,997.08
2023-01-19T00:20:54.352Z,997.07
2023-01-19T00:21:54.327Z,997.02
2023-01-19T00:22:54.322Z,997.07
2023-01-19T00:23:54.341Z,997.08
2023-01-19T00:24:54.324Z,997.09
2023-01-19T00:25:54.304Z,997.10
2023-01-19T00:26:54.273Z,997.08
2023-01-19T00:27:54.297Z,997.09
2023-01-19T00:28:54.256Z,997.11
2023-01-19T00:29:54.268Z,997.14
2023-01-19T00:30:54.249Z,997.15
2023-01-19T00:31:54.247Z,997.16
2023-01-19T00:32:54.221Z,997.18
2023-01-19T00:33:54.200Z,997.20
2023-01-19T00:34:54.216Z,997.19
2023-01-19T00:35:54.174Z,997.22
2023-01-19T00:36:54.184Z,997.23
2023-01-19T00:37:54.152Z,997.25
2023-01-19T00:38:54.152Z,997.27
2023-01-19T00:39:54.139Z,997.26
2023-01-19T00:40:54.135Z,997.28
2023-01-19T00:41:54.133Z,997.28
2023-01-19T00:42:54.116Z,997.25
2023-01-19T00:43:54.092Z,997.28
2023-01-19T00:44:54.105Z,997.34
2023-01-19T00:45:54.113Z,997.28
2023-01-19T00:46:54.076Z,997.29
2023-01-19T00:47:54.071Z,997.37
2023-01-19T00:48:54.043Z,997.33
2023-01-19T00:49:54.034Z,997.31
2023-01-19T00:50:54.041Z,997.36
2023-01-19T00:51:54.017Z,997.35
2023-01-19T00:52:54.025Z,997.37
2023-01-19T00:53:54.001Z,997.37
2023-01-19T00:54:53.983Z,997.36
2023-01-19T00:55:53.965Z,997.32
2023-01-19T00:56:53.955Z,997.35
2023-01-19T00:57:53.943Z,997.31
2023-01-19T00:58:53.957Z,997.37
2023-01-19T00:59:53.938Z,997.31
2023-01-19T01:00:54.015Z,997.38
2023-01-19T01:01:54.118Z,997.41
2023-01-19T01:02:54.050Z,997.46
2023-01-19T01:03:53.904Z,997.40
2023-01-19T01:04:53.878Z,997.44
2023-01-19T01:05:53.859Z,997.44
2023-01-19T01:06:53.854Z,997.38
2023-01-19T01:07:53.853Z,997.40
2023-01-19T01:08:53.835Z,997.43
2023-01-19T01:09:53.835Z,997.41
2023-01-19T01:10:53.823Z,997.41
2023-01-19T01:11:53.806Z,997.42
2023-01-19T01:12:57.454Z,997.39
2023-01-19T01:13:53.793Z,997.36
2023-01-19T01:14:53.777Z,997.35
2023-01-19T01:15:53.767Z,997.41
2023-01-19T01:16:53.925Z,997.36
2023-01-19T01:17:53.742Z,997.38
2023-01-19T01:18:53.727Z,997.40
2023-01-19T01:19:53.747Z,997.37
2023-01-19T01:20:56.069Z,997.40
2023-01-19T01:21:53.700Z,997.43
2023-01-19T01:22:53.734Z,997.40
2023-01-19T01:23:53.680Z,997.43
2023-01-19T01:24:53.678Z,997.40
2023-01-19T01:25:53.665Z,997.41
2023-01-19T01:26:53.668Z,997.43
2023-01-19T01:27:53.645Z,997.39
2023-01-19T01:28:53.631Z,997.40
2023-01-19T01:29:53.629Z,997.39
2023-01-19T01:30:53.611Z,997.36
2023-01-19T01:31:53.673Z,997.38
2023-01-19T01:32:53.595Z,997.39
2023-01-19T01:33:53.576Z,997.48
2023-01-19T01:34:53.571Z,997.41
2023-01-19T01:35:53.565Z,997.46
2023-01-19T01:36:53.556Z,997.50
2023-01-19T01:37:53.534Z,997.45
2023-01-19T01:38:53.521Z,997.48
2023-01-19T01:39:53.514Z,997.45
2023-01-19T01:40:53.496Z,997.48
2023-01-19T01:41:54.005Z,997.49
2023-01-19T01:42:53.476Z,997.54
2023-01-19T01:43:53.475Z,997.51
2023-01-19T01:44:53.465Z,997.53
2023-01-19T01:45:53.471Z,997.51
2023-01-19T01:46:53.463Z,997.49
2023-01-19T01:47:53.454Z,997.50
2023-01-19T01:48:53.414Z,997.48
2023-01-19T01:49:53.415Z,997.52
2023-01-19T01:50:53.398Z,997.50
2023-01-19T01:51:53.428Z,997.50
2023-01-19T01:53:06.554Z,997.49
2023-01-19T01:53:54.374Z,997.55
2023-01-19T01:54:53.354Z,997.53
2023-01-19T01:55:53.352Z,997.55
2023-01-19T01:56:53.338Z,997.55
2023-01-19T01:57:53.321Z,997.54
2023-01-19T01:58:53.322Z,997.54
2023-01-19T01:59:53.327Z,997.55
2023-01-19T02:00:53.429Z,997.49
2023-01-19T02:01:53.445Z,997.47
2023-01-19T02:02:53.291Z,997.52
2023-01-19T02:03:53.265Z,997.53
2023-01-19T02:04:53.265Z,997.50
2023-01-19T02:05:53.248Z,997.46
2023-01-19T02:06:53.251Z,997.51
2023-01-19T02:07:53.239Z,997.50
2023-01-19T02:08:53.207Z,997.45
2023-01-19T02:09:53.202Z,997.52
2023-01-19T02:10:53.202Z,997.47
2023-01-19T02:11:53.182Z,997.48
2023-01-19T02:12:53.166Z,997.47
2023-01-19T02:13:53.159Z,997.46
2023-01-19T02:14:53.174Z,997.49
2023-01-19T02:15:53.140Z,997.48
2023-01-19T02:16:53.186Z,997.44
2023-01-19T02:17:53.110Z,997.45
2023-01-19T02:18:53.133Z,997.46
2023-01-19T02:19:53.102Z,997.46
2023-01-19T02:20:53.103Z,997.47
2023-01-19T02:21:53.083Z,997.49
2023-01-19T02:22:53.061Z,997.47
2023-01-19T02:23:53.083Z,997.47
2023-01-19T02:24:53.053Z,997.43
2023-01-19T02:25:53.072Z,997.43
2023-01-19T02:26:53.041Z,997.48
2023-01-19T02:27:53.036Z,997.51
2023-01-19T02:28:53.025Z,997.53
2023-01-19T02:29:52.988Z,997.48
2023-01-19T02:30:53.043Z,997.54
2023-01-19T02:31:52.978Z,997.54
2023-01-19T02:32:52.957Z,997.55
2023-01-19T02:33:52.947Z,997.59
2023-01-19T02:34:52.948Z,997.56
2023-01-19T02:35:52.964Z,997.54
2023-01-19T02:36:52.944Z,997.45
2023-01-19T02:37:52.912Z,997.45
2023-01-19T02:38:52.900Z,997.47
2023-01-19T02:39:52.916Z,997.48
2023-01-19T02:40:52.869Z,997.46
2023-01-19T02:41:52.884Z,997.49
2023-01-19T02:42:52.856Z,997.47
2023-01-19T02:43:52.874Z,997.46
2023-01-19T02:44:52.831Z,997.47
2023-01-19T02:45:52.899Z,997.47
2023-01-19T02:46:52.806Z,997.47
2023-01-19T02:47:52.802Z,997.41
2023-01-19T02:48:52.792Z,997.45
2023-01-19T02:49:52.786Z,997.43
2023-01-19T02:50:52.761Z,997.44
2023-01-19T02:51:52.758Z,997.45
2023-01-19T02:52:52.744Z,997.43
2023-01-19T02:53:52.745Z,997.45
2023-01-19T02:54:52.731Z,997.44
2023-01-19T02:55:52.792Z,997.40
2023-01-19T02:56:52.698Z,997.43
2023-01-19T02:57:52.687Z,997.48
2023-01-19T02:58:52.675Z,997.52
2023-01-19T02:59:52.707Z,997.42
2023-01-19T03:00:52.680Z,997.45
2023-01-19T03:01:52.772Z,997.44
2023-01-19T03:02:52.649Z,997.49
2023-01-19T03:03:52.629Z,997.46
2023-01-19T03:04:52.619Z,997.43
2023-01-19T03:05:52.636Z,997.46
2023-01-19T03:06:52.601Z,997.47
2023-01-19T03:07:52.585Z,997.45
2023-01-19T03:08:52.576Z,997.45
2023-01-19T03:09:52.580Z,997.48
2023-01-19T03:10:52.574Z,997.49
2023-01-19T03:11:52.558Z,997.47
2023-01-19T03:12:52.537Z,997.47
2023-01-19T03:13:52.539Z,997.49
2023-01-19T03:14:52.535Z,997.49
2023-01-19T03:15:52.751Z,997.44
2023-01-19T03:16:52.536Z,997.46
2023-01-19T03:17:52.489Z,997.48
2023-01-19T03:18:52.467Z,997.44
2023-01-19T03:19:52.475Z,997.47
2023-01-19T03:20:52.454Z,997.45
2023-01-19T03:21:52.446Z,997.46
2023-01-19T03:22:52.434Z,997.49
2023-01-19T03:23:52.426Z,997.43
2023-01-19T03:24:52.412Z,997.44
2023-01-19T03:25:52.396Z,997.51
2023-01-19T03:26:52.414Z,997.52
2023-01-19T03:27:52.387Z,997.50
2023-01-19T03:28:52.391Z,997.54
2023-01-19T03:29:52.362Z,997.56
2023-01-19T03:30:52.441Z,997.54
2023-01-19T03:31:52.341Z,997.56
2023-01-19T03:32:52.350Z,997.55
2023-01-19T03:33:52.333Z,997.55
2023-01-19T03:34:52.307Z,997.51
2023-01-19T03:35:52.307Z,997.51
2023-01-19T03:36:52.300Z,997.55
2023-01-19T03:37:52.294Z,997.51
2023-01-19T03:38:52.286Z,997.50
2023-01-19T03:39:52.254Z,997.53
2023-01-19T03:40:52.266Z,997.51
2023-01-19T03:41:52.228Z,997.52
2023-01-19T03:42:52.227Z,997.54
2023-01-19T03:43:52.248Z,997.52
2023-01-19T03:44:52.196Z,997.56
2023-01-19T03:45:52.233Z,997.55
2023-01-19T03:46:52.191Z,997.61
2023-01-19T03:47:52.190Z,997.61
2023-01-19T03:48:52.180Z,997.62
2023-01-19T03:49:52.161Z,997.63
2023-01-19T03:50:52.173Z,997.67
2023-01-19T03:51:52.147Z,997.66
2023-01-19T03:52:52.110Z,997.70
2023-01-19T03:53:52.107Z,997.67
2023-01-19T03:54:52.091Z,997.62
2023-01-19T03:55:52.092Z,997.68
2023-01-19T03:56:52.088Z,997.59
2023-01-19T03:57:52.071Z,997.64
2023-01-19T03:58:52.059Z,997.62
2023-01-19T03:59:52.067Z,997.65
2023-01-19T04:00:52.068Z,997.63
2023-01-19T04:01:52.127Z,997.68
2023-01-19T04:02:52.075Z,997.71
2023-01-19T04:03:52.008Z,997.68
2023-01-19T04:04:52.016Z,997.71
2023-01-19T04:05:52.015Z,997.73
2023-01-19T04:06:51.972Z,997.69
2023-01-19T04:07:51.960Z,997.66
2023-01-19T04:08:51.956Z,997.67
2023-01-19T04:09:51.956Z,997.70
2023-01-19T04:10:51.930Z,997.72
2023-01-19T04:11:51.935Z,997.73
2023-01-19T04:12:51.907Z,997.70
2023-01-19T04:13:51.912Z,997.67
2023-01-19T04:14:51.876Z,997.68
2023-01-19T04:15:51.984Z,997.66
2023-01-19T04:16:51.855Z,997.71
2023-01-19T04:17:51.852Z,997.73
2023-01-19T04:18:51.841Z,997.71
2023-01-19T04:19:51.821Z,997.77
2023-01-19T04:20:51.830Z,997.78
2023-01-19T04:21:51.844Z,997.74
2023-01-19T04:22:51.798Z,997.73
2023-01-19T04:23:51.788Z,997.75
2023-01-19T04:24:51.772Z,997.74
2023-01-19T04:25:51.764Z,997.70
2023-01-19T04:26:51.754Z,997.72
2023-01-19T04:27:51.767Z,997.75
2023-01-19T04:28:51.731Z,997.73
2023-01-19T04:29:51.721Z,997.70
2023-01-19T04:30:51.736Z,997.73
2023-01-19T04:31:51.719Z,997.71
2023-01-19T04:32:51.695Z,997.70
2023-01-19T04:33:51.701Z,997.75
2023-01-19T04:34:51.663Z,997.76
2023-01-19T04:35:53.548Z,997.75
2023-01-19T04:36:51.670Z,997.71
2023-01-19T04:37:51.636Z,997.74
2023-01-19T04:38:51.640Z,997.73
2023-01-19T04:39:51.626Z,997.79
2023-01-19T04:40:51.605Z,997.75
2023-01-19T04:41:51.597Z,997.73
2023-01-19T04:42:51.589Z,997.69
2023-01-19T04:43:51.592Z,997.68
2023-01-19T04:44:51.586Z,997.70
2023-01-19T04:45:51.557Z,997.68
2023-01-19T04:46:51.568Z,997.71
2023-01-19T04:47:51.554Z,997.71
2023-01-19T04:48:51.545Z,997.72
2023-01-19T04:49:51.511Z,997.72
2023-01-19T04:50:51.522Z,997.74
2023-01-19T04:51:51.493Z,997.75
2023-01-19T04:52:51.479Z,997.77
2023-01-19T04:53:51.488Z,997.77
2023-01-19T04:54:51.472Z,997.76
2023-01-19T04:55:51.488Z,997.76
2023-01-19T04:56:51.443Z,997.75
2023-01-19T04:57:51.439Z,997.74
2023-01-19T04:58:51.426Z,997.75
2023-01-19T04:59:51.409Z,997.76
2023-01-19T05:00:51.453Z,997.72
2023-01-19T05:01:51.490Z,997.68
2023-01-19T05:02:51.408Z,997.71
2023-01-19T05:03:51.396Z,997.70
2023-01-19T05:04:51.361Z,997.75
2023-01-19T05:05:51.354Z,997.78
2023-01-19T05:06:51.353Z,997.82
2023-01-19T05:07:51.324Z,997.81
2023-01-19T05:08:51.318Z,997.77
2023-01-19T05:09:51.299Z,997.76
2023-01-19T05:10:51.289Z,997.74
2023-01-19T05:11:51.279Z,997.76
2023-01-19T05:12:51.375Z,997.75
2023-01-19T05:13:51.613Z,997.79
2023-01-19T05:14:51.247Z,997.77
2023-01-19T05:15:51.263Z,997.75
2023-01-19T05:16:51.227Z,997.77
2023-01-19T05:17:51.223Z,997.78
2023-01-19T05:18:51.237Z,997.82
2023-01-19T05:19:51.330Z,997.80
2023-01-19T05:20:51.196Z,997.82
2023-01-19T05:21:51.171Z,997.85
2023-01-19T05:22:51.163Z,997.83
2023-01-19T05:23:51.166Z,997.83
2023-01-19T05:24:51.148Z,997.78
2023-01-19T05:25:51.141Z,997.85
2023-01-19T05:26:51.135Z,997.86
2023-01-19T05:27:51.124Z,997.86
2023-01-19T05:28:51.124Z,997.83
2023-01-19T05:29:51.115Z,997.77
2023-01-19T05:30:51.131Z,997.80
2023-01-19T05:31:51.118Z,997.77
2023-01-19T05:32:51.066Z,997.79
2023-01-19T05:33:51.074Z,997.77
2023-01-19T05:34:51.039Z,997.77
2023-01-19T05:35:51.058Z,997.75
2023-01-19T05:36:51.015Z,997.84
2023-01-19T05:37:51.017Z,997.84
2023-01-19T05:38:51.017Z,997.89
2023-01-19T05:39:50.996Z,997.90
2023-01-19T05:40:50.994Z,997.91
2023-01-19T05:41:50.976Z,997.88
2023-01-19T05:42:50.955Z,997.89
2023-01-19T05:43:50.955Z,997.93
2023-01-19T05:44:50.950Z,997.96
2023-01-19T05:45:50.963Z,997.92
2023-01-19T05:46:50.962Z,997.95
2023-01-19T05:47:50.934Z,998.01
2023-01-19T05:48:50.891Z,998.03
2023-01-19T05:49:50.901Z,998.00
2023-01-19T05:50:50.907Z,997.99
2023-01-19T05:51:50.883Z,998.02
2023-01-19T05:52:50.850Z,998.08
2023-01-19T05:53:50.850Z,998.16
2023-01-19T05:54:50.835Z,998.10
2023-01-19T05:55:50.839Z,998.22
2023-01-19T05:56:50.829Z,998.15
2023-01-19T05:57:50.804Z,998.20
2023-01-19T05:58:50.788Z,998.22
2023-01-19T05:59:50.783Z,998.22
2023-01-19T06:00:50.798Z,998.24
2023-01-19T06:01:50.838Z,998.28
2023-01-19T06:02:50.825Z,998.30
2023-01-19T06:03:50.746Z,998.28
2023-01-19T06:04:50.724Z,998.28
2023-01-19T06:05:50.721Z,998.29
2023-01-19T06:06:50.717Z,998.29
2023-01-19T06:07:50.713Z,998.29
2023-01-19T06:08:50.710Z,998.32
2023-01-19T06:09:50.678Z,998.35
2023-01-19T06:10:50.663Z,998.34
2023-01-19T06:11:50.679Z,998.36
2023-01-19T06:12:50.658Z,998.34
2023-01-19T06:13:50.657Z,998.35
2023-01-19T06:14:50.629Z,998.37
2023-01-19T06:15:50.622Z,998.36
2023-01-19T06:16:50.617Z,998.36
2023-01-19T06:17:50.588Z,998.35
2023-01-19T06:18:50.598Z,998.31
2023-01-19T06:19:50.565Z,998.31
2023-01-19T06:20:50.560Z,998.30
2023-01-19T06:21:50.547Z,998.33
2023-01-19T06:22:50.557Z,998.39
2023-01-19T06:23:50.560Z,998.29
2023-01-19T06:24:50.525Z,998.29
2023-01-19T06:25:50.515Z,998.31
2023-01-19T06:26:50.498Z,998.32
2023-01-19T06:27:50.496Z,998.29
2023-01-19T06:28:50.501Z,998.31
2023-01-19T06:29:50.472Z,998.28
2023-01-19T06:30:50.532Z,998.36
2023-01-19T06:31:50.503Z,998.36
2023-01-19T06:32:50.439Z,998.38
2023-01-19T06:33:50.444Z,998.36
2023-01-19T06:34:52.669Z,998.35
2023-01-19T06:35:50.397Z,998.34
2023-01-19T06:36:50.411Z,998.31
2023-01-19T06:37:50.390Z,998.34
2023-01-19T06:38:50.383Z,998.32
2023-01-19T06:39:51.322Z,998.36
2023-01-19T06:40:50.392Z,998.27
2023-01-19T06:41:50.339Z,998.31
2023-01-19T06:42:50.350Z,998.32
2023-01-19T06:43:50.357Z,998.31
2023-01-19T06:44:50.317Z,998.37
2023-01-19T06:45:50.419Z,998.33
2023-01-19T06:46:50.329Z,998.33
2023-01-19T06:47:50.278Z,998.31
2023-01-19T06:48:50.266Z,998.31
2023-01-19T06:49:50.267Z,998.30
2023-01-19T06:50:50.264Z,998.27
2023-01-19T06:51:50.249Z,998.25
2023-01-19T06:52:50.245Z,998.36
2023-01-19T06:53:50.224Z,998.32
2023-01-19T06:54:50.207Z,998.32
2023-01-19T06:55:50.280Z,998.33
2023-01-19T06:56:50.190Z,998.30
2023-01-19T06:57:50.194Z,998.32
2023-01-19T06:58:50.182Z,998.32
2023-01-19T06:59:50.147Z,998.35
2023-01-19T07:00:50.234Z,998.32
2023-01-19T07:01:50.265Z,998.38
2023-01-19T07:02:50.239Z,998.39
2023-01-19T07:03:50.121Z,998.39
2023-01-19T07:04:50.116Z,998.42
2023-01-19T07:05:50.091Z,998.41
2023-01-19T07:06:50.081Z,998.42
2023-01-19T07:07:50.077Z,998.41
2023-01-19T07:08:50.066Z,998.43
2023-01-19T07:09:50.050Z,998.38
2023-01-19T07:11:26.318Z,998.46
2023-01-19T07:11:51.040Z,998.40
2023-01-19T07:12:50.067Z,998.47
2023-01-19T07:13:50.008Z,998.47
2023-01-19T07:14:50.000Z,998.50
2023-01-19T07:15:49.994Z,998.54
2023-01-19T07:16:50.081Z,998.46
2023-01-19T07:17:49.966Z,998.47
2023-01-19T07:18:49.968Z,998.52
2023-01-19T07:19:49.945Z,998.54
2023-01-19T07:20:49.933Z,998.54
2023-01-19T07:21:49.967Z,998.54
2023-01-19T07:22:49.944Z,998.55
2023-01-19T07:23:49.911Z,998.56
2023-01-19T07:24:49.901Z,998.55
2023-01-19T07:25:49.880Z,998.55
2023-01-19T07:26:49.915Z,998.59
2023-01-19T07:27:49.890Z,998.52
2023-01-19T07:28:49.891Z,998.56
2023-01-19T07:29:49.842Z,998.50
2023-01-19T07:30:49.986Z,998.52
2023-01-19T07:31:50.021Z,998.54
2023-01-19T07:32:49.816Z,998.58
2023-01-19T07:33:49.831Z,998.55
2023-01-19T07:34:49.803Z,998.61
2023-01-19T07:35:49.794Z,998.64
2023-01-19T07:36:49.827Z,998.67
2023-01-19T07:37:49.777Z,998.72
2023-01-19T07:38:49.743Z,998.74
2023-01-19T07:39:49.728Z,998.72
2023-01-19T07:40:49.759Z,998.73
2023-01-19T07:41:49.722Z,998.76
2023-01-19T07:42:49.707Z,998.76
2023-01-19T07:43:49.769Z,998.74
2023-01-19T07:44:49.681Z,998.73
2023-01-19T07:45:49.720Z,998.69
2023-01-19T07:46:49.657Z,998.77
2023-01-19T07:47:49.689Z,998.73
2023-01-19T07:48:49.642Z,998.72
2023-01-19T07:49:49.642Z,998.72
2023-01-19T07:50:49.633Z,998.75
2023-01-19T07:51:49.615Z,998.71
2023-01-19T07:52:49.610Z,998.69
2023-01-19T07:53:49.620Z,998.77
2023-01-19T07:54:49.584Z,998.76
2023-01-19T07:55:49.582Z,998.73
2023-01-19T07:56:49.575Z,998.72
2023-01-19T07:57:49.557Z,998.77
2023-01-19T07:58:49.578Z,998.85
2023-01-19T07:59:49.635Z,998.84
2023-01-19T08:00:49.561Z,998.88
2023-01-19T08:01:49.604Z,998.83
2023-01-19T08:02:49.493Z,998.84
2023-01-19T08:03:49.518Z,998.88
2023-01-19T08:04:49.505Z,998.92
2023-01-19T08:05:49.475Z,998.91
2023-01-19T08:06:49.467Z,998.85
2023-01-19T08:07:49.439Z,998.82
2023-01-19T08:08:49.439Z,998.87
2023-01-19T08:09:49.704Z,998.88
2023-01-19T08:10:49.411Z,998.88
2023-01-19T08:11:49.424Z,998.87
2023-01-19T08:12:49.394Z,998.92
2023-01-19T08:13:49.412Z,998.90
2023-01-19T08:14:49.414Z,998.89
2023-01-19T08:15:49.463Z,998.90
2023-01-19T08:16:49.348Z,998.84
2023-01-19T08:17:49.333Z,998.87
2023-01-19T08:18:49.327Z,998.89
2023-01-19T08:19:49.310Z,998.91
2023-01-19T08:20:49.357Z,998.88
2023-01-19T08:21:49.300Z,998.94
2023-01-19T08:22:49.292Z,998.91
2023-01-19T08:23:49.315Z,998.98
2023-01-19T08:24:50.460Z,999.01
2023-01-19T08:25:49.296Z,999.00
2023-01-19T08:26:49.247Z,999.02
2023-01-19T08:27:49.252Z,998.98
2023-01-19T08:28:49.219Z,999.00
2023-01-19T08:29:49.225Z,998.99
2023-01-19T08:30:49.250Z,999.08
2023-01-19T08:31:49.388Z,998.96
2023-01-19T08:32:49.182Z,999.03
2023-01-19T08:33:49.175Z,998.99
2023-01-19T08:34:49.164Z,999.04
2023-01-19T08:35:49.170Z,999.15
2023-01-19T08:36:49.169Z,999.18
2023-01-19T08:37:49.136Z,999.15
2023-01-19T08:38:49.133Z,999.19
2023-01-19T08:39:49.115Z,999.18
2023-01-19T08:40:49.123Z,999.06
2023-01-19T08:41:49.094Z,999.03
2023-01-19T08:42:49.104Z,999.02
2023-01-19T08:43:49.090Z,999.02
2023-01-19T08:44:57.724Z,999.04
2023-01-19T08:45:50.065Z,999.07
2023-01-19T08:46:49.071Z,999.04
2023-01-19T08:47:49.156Z,999.06
2023-01-19T08:48:49.028Z,999.00
2023-01-19T08:49:49.011Z,999.12
2023-01-19T08:50:49.005Z,999.14
2023-01-19T08:51:49.118Z,999.16
2023-01-19T08:52:49.018Z,999.18
2023-01-19T08:53:49.013Z,999.18
2023-01-19T08:54:48.964Z,999.19
2023-01-19T08:55:48.956Z,999.16
2023-01-19T08:56:48.968Z,999.14
2023-01-19T08:57:48.928Z,999.13
2023-01-19T08:59:03.264Z,999.17
2023-01-19T08:59:49.933Z,999.15
2023-01-19T09:00:48.906Z,999.16
2023-01-19T09:01:49.018Z,999.15
2023-01-19T09:02:48.965Z,999.18
2023-01-19T09:03:48.913Z,999.22
2023-01-19T09:04:48.854Z,999.22
2023-01-19T09:05:48.852Z,999.17
2023-01-19T09:06:48.824Z,999.23
2023-01-19T09:07:48.839Z,999.17
2023-01-19T09:08:48.843Z,999.14
2023-01-19T09:09:48.810Z,999.07
2023-01-19T09:10:48.786Z,999.10
2023-01-19T09:11:48.806Z,999.04
2023-01-19T09:12:48.782Z,999.05
2023-01-19T09:13:48.748Z,999.05
2023-01-19T09:14:48.747Z,999.06
2023-01-19T09:15:48.781Z,999.09
2023-01-19T09:16:48.717Z,999.15
2023-01-19T09:17:48.731Z,999.23
2023-01-19T09:18:48.702Z,999.26
2023-01-19T09:19:48.708Z,999.22
2023-01-19T09:20:48.713Z,999.20
2023-01-19T09:21:48.668Z,999.22
2023-01-19T09:22:48.684Z,999.21
2023-01-19T09:23:48.669Z,999.19
2023-01-19T09:24:48.653Z,999.25
2023-01-19T09:25:48.633Z,999.27
2023-01-19T09:26:48.653Z,999.23
2023-01-19T09:27:48.597Z,999.23
2023-01-19T09:28:48.666Z,999.21
2023-01-19T09:29:48.584Z,999.33
2023-01-19T09:30:48.592Z,999.21
2023-01-19T09:31:48.585Z,999.28
2023-01-19T09:32:48.543Z,999.23
2023-01-19T09:33:48.570Z,999.27
2023-01-19T09:34:48.549Z,999.32
2023-01-19T09:35:48.536Z,999.29
2023-01-19T09:36:48.513Z,999.35
2023-01-19T09:37:48.496Z,999.34
2023-01-19T09:38:48.475Z,999.23
2023-01-19T09:39:48.645Z,999.22
2023-01-19T09:40:48.456Z,999.21
2023-01-19T09:41:48.472Z,999.17
2023-01-19T09:42:48.465Z,999.22
2023-01-19T09:43:48.447Z,999.23
2023-01-19T09:44:48.453Z,999.25
2023-01-19T09:45:48.458Z,999.20
2023-01-19T09:46:48.431Z,999.22
2023-01-19T09:47:48.406Z,999.24
2023-01-19T09:48:49.249Z,999.18
2023-01-19T09:49:48.416Z,999.18
2023-01-19T09:50:48.397Z,999.18
2023-01-19T09:51:48.423Z,999.29
2023-01-19T09:52:48.396Z,999.15
2023-01-19T09:53:48.496Z,999.16
2023-01-19T09:54:48.527Z,999.19
2023-01-19T09:55:48.666Z,999.24
2023-01-19T09:56:50.693Z,999.21
2023-01-19T09:57:48.335Z,999.20
2023-01-19T09:58:48.254Z,999.17
2023-01-19T09:59:48.259Z,999.21
2023-01-19T10:00:48.308Z,999.24
2023-01-19T10:01:48.361Z,999.18
2023-01-19T10:02:48.270Z,999.18
2023-01-19T10:03:48.273Z,999.21
2023-01-19T10:04:48.193Z,999.18
2023-01-19T10:05:48.211Z,999.13
2023-01-19T10:06:48.670Z,999.11
2023-01-19T10:07:48.258Z,999.14
2023-01-19T10:08:48.159Z,999.12
2023-01-19T10:09:48.141Z,999.16
2023-01-19T10:10:48.133Z,999.11
2023-01-19T10:11:53.009Z,999.04
2023-01-19T10:12:49.116Z,999.09
2023-01-19T10:13:48.097Z,999.08
2023-01-19T10:14:48.095Z,999.05
2023-01-19T10:15:48.137Z,999.08
2023-01-19T10:16:48.094Z,999.06
2023-01-19T10:17:48.064Z,999.07
2023-01-19T10:18:48.064Z,999.10
2023-01-19T10:19:48.040Z,999.02
2023-01-19T10:20:48.043Z,999.09
2023-01-19T10:21:48.011Z,999.07
2023-01-19T10:22:48.037Z,999.00
2023-01-19T10:23:48.023Z,999.00
2023-01-19T10:24:48.042Z,998.97
2023-01-19T10:25:48.045Z,998.99
2023-01-19T10:26:47.958Z,999.02
2023-01-19T10:27:47.957Z,998.95
2023-01-19T10:28:47.985Z,998.94
2023-01-19T10:29:47.934Z,999.00
2023-01-19T10:30:47.954Z,998.99
2023-01-19T10:31:47.927Z,998.97
2023-01-19T10:32:48.004Z,999.01
2023-01-19T10:33:47.894Z,999.02
2023-01-19T10:34:47.908Z,999.09
2023-01-19T10:35:47.880Z,999.07
2023-01-19T10:36:47.864Z,999.08
2023-01-19T10:37:47.902Z,999.03
2023-01-19T10:38:47.857Z,999.05
2023-01-19T10:39:47.843Z,999.03
2023-01-19T10:40:47.822Z,998.99
2023-01-19T10:41:47.795Z,998.97
2023-01-19T10:42:47.806Z,998.99
2023-01-19T10:43:47.815Z,998.92
2023-01-19T10:44:47.812Z,998.93
2023-01-19T10:45:47.849Z,998.99
2023-01-19T10:46:47.753Z,998.94
2023-01-19T10:47:47.778Z,998.91
2023-01-19T10:48:47.743Z,998.86
2023-01-19T10:49:47.720Z,998.94
2023-01-19T10:50:47.729Z,998.95
2023-01-19T10:51:47.745Z,998.96
2023-01-19T10:52:47.771Z,998.95
2023-01-19T10:53:47.675Z,998.97
2023-01-19T10:54:47.736Z,998.95
2023-01-19T10:55:47.732Z,998.99
2023-01-19T10:56:47.668Z,998.89
2023-01-19T10:57:47.647Z,998.94
2023-01-19T10:58:47.645Z,998.88
2023-01-19T10:59:47.705Z,998.95
2023-01-19T11:00:47.660Z,998.95
2023-01-19T11:01:47.866Z,998.93
2023-01-19T11:02:47.613Z,998.89
2023-01-19T11:03:47.606Z,998.87
2023-01-19T11:04:49.883Z,998.88
2023-01-19T11:05:47.537Z,998.87
2023-01-19T11:06:47.526Z,998.86
2023-01-19T11:07:47.526Z,998.84
2023-01-19T11:08:47.529Z,998.87
2023-01-19T11:09:47.525Z,998.85
2023-01-19T11:10:49.246Z,998.82
2023-01-19T11:11:47.514Z,998.81
2023-01-19T11:12:47.455Z,998.78
2023-01-19T11:13:47.448Z,998.86
2023-01-19T11:14:47.434Z,998.75
2023-01-19T11:15:47.449Z,998.72
2023-01-19T11:16:47.449Z,998.80
2023-01-19T11:17:47.402Z,998.78
2023-01-19T11:18:47.403Z,998.73
2023-01-19T11:19:47.382Z,998.71
2023-01-19T11:20:47.414Z,998.74
2023-01-19T11:21:47.372Z,998.76
2023-01-19T11:22:48.846Z,998.76
2023-01-19T11:23:47.338Z,998.75
2023-01-19T11:24:47.335Z,998.72
2023-01-19T11:25:47.342Z,998.74
2023-01-19T11:26:47.347Z,998.78
2023-01-19T11:27:47.319Z,998.74
2023-01-19T11:28:47.296Z,998.74
2023-01-19T11:29:47.286Z,998.70
2023-01-19T11:30:47.325Z,998.71
2023-01-19T11:31:47.321Z,998.66
2023-01-19T11:32:47.255Z,998.65
2023-01-19T11:33:49.656Z,998.73
2023-01-19T11:34:47.236Z,998.68
2023-01-19T11:35:47.253Z,998.67
2023-01-19T11:36:47.207Z,998.67
2023-01-19T11:37:47.194Z,998.68
2023-01-19T11:38:47.189Z,998.70
2023-01-19T11:39:47.174Z,998.64
2023-01-19T11:40:47.240Z,998.68
2023-01-19T11:41:47.163Z,998.69
2023-01-19T11:42:47.174Z,998.61
2023-01-19T11:43:49.516Z,998.64
2023-01-19T11:44:47.126Z,998.58
2023-01-19T11:45:47.176Z,998.60
2023-01-19T11:46:49.932Z,998.67
2023-01-19T11:47:47.125Z,998.65
2023-01-19T11:48:47.096Z,998.59
2023-01-19T11:49:47.060Z,998.64
2023-01-19T11:50:47.103Z,998.64
2023-01-19T11:51:47.077Z,998.60
2023-01-19T11:52:47.050Z,998.64
2023-01-19T11:53:47.031Z,998.58
2023-01-19T11:54:47.014Z,998.56
2023-01-19T11:55:47.007Z,998.56
2023-01-19T11:56:47.019Z,998.52
2023-01-19T11:57:46.994Z,998.62
2023-01-19T11:58:46.991Z,998.55
2023-01-19T11:59:46.969Z,998.51
2023-01-19T12:00:46.959Z,998.51
2023-01-19T12:01:46.993Z,998.48
2023-01-19T12:02:46.934Z,998.50
2023-01-19T12:03:46.953Z,998.51
2023-01-19T12:04:46.909Z,998.53
2023-01-19T12:05:48.306Z,998.51
2023-01-19T12:06:46.902Z,998.59
2023-01-19T12:07:46.875Z,998.59
2023-01-19T12:08:46.873Z,998.55
2023-01-19T12:09:46.866Z,998.60
2023-01-19T12:10:46.839Z,998.69
2023-01-19T12:11:46.858Z,998.71
2023-01-19T12:12:46.817Z,998.61
2023-01-19T12:13:46.825Z,998.65
2023-01-19T12:14:46.800Z,998.57
2023-01-19T12:15:46.814Z,998.54
2023-01-19T12:16:46.842Z,998.59
2023-01-19T12:17:46.809Z,998.55
2023-01-19T12:18:46.766Z,998.59
2023-01-19T12:19:46.763Z,998.56
2023-01-19T12:20:46.742Z,998.55
2023-01-19T12:21:46.750Z,998.57
2023-01-19T12:22:46.739Z,998.58
2023-01-19T12:23:46.790Z,998.56
2023-01-19T12:24:46.768Z,998.62
2023-01-19T12:25:46.725Z,998.60
2023-01-19T12:26:46.720Z,998.60
2023-01-19T12:27:46.739Z,998.58
2023-01-19T12:28:46.728Z,998.66